Encantado, Brazil
Current Conditions -  °F | °C
As of 8:00 AM on Sunday 21 Dec 2014 (Local Time) from SBCO Reporting Station
Light Rain Light Rain  
Wind Chill: 70°   Ceiling: 3500
Heat Index: 70°   Visibility: 5mi
Dew Point: 70°   Wind: 12mph
Humidity: 100%   Direction: 110°ESE
Pressure: 29.62"   Gusts: NA
Location:  29.24°S, 51.87°W
Report Text: SBCO 211000Z 11010KT 8000 -RA SCT009 BKN035 OVC080 21/21 Q1003 RERA
Loading
Personal Weather Stations






























Interactive Weather Map New forecast layout! Learn more

10-Day Weather Forecast

Advertisements
Track Severe Weather on mobile